createdAt,value
2018-11-06T00:00:50.887Z,13.50
2018-11-06T00:03:24.868Z,13.50
2018-11-06T00:05:53.740Z,13.40
2018-11-06T00:08:22.306Z,13.40
2018-11-06T00:10:50.583Z,13.40
2018-11-06T00:13:19.047Z,13.40
2018-11-06T00:15:47.441Z,13.40
2018-11-06T00:18:15.764Z,13.40
2018-11-06T00:20:44.135Z,13.30
2018-11-06T00:23:12.592Z,13.30
2018-11-06T00:25:41.062Z,13.30
2018-11-06T00:28:09.724Z,13.30
2018-11-06T00:30:38.261Z,13.30
2018-11-06T00:33:06.981Z,13.30
2018-11-06T00:35:35.436Z,13.30
2018-11-06T00:38:03.917Z,13.30
2018-11-06T00:40:32.332Z,13.30
2018-11-06T00:43:00.689Z,13.30
2018-11-06T00:45:29.126Z,13.30
2018-11-06T00:47:57.496Z,13.20
2018-11-06T00:50:27.075Z,13.20
2018-11-06T00:52:56.118Z,13.20
2018-11-06T00:55:24.543Z,13.20
2018-11-06T00:57:52.876Z,13.20
2018-11-06T01:00:21.215Z,13.20
2018-11-06T01:02:49.643Z,13.20
2018-11-06T01:05:18.385Z,13.20
2018-11-06T01:07:47.844Z,13.20
2018-11-06T01:10:16.619Z,13.20
2018-11-06T01:12:47.329Z,13.10
2018-11-06T01:15:16.611Z,13.10
2018-11-06T01:17:45.710Z,13.10
2018-11-06T01:20:15.839Z,13.10
2018-11-06T01:22:44.297Z,13.10
2018-11-06T01:25:13.025Z,13.10
2018-11-06T01:27:41.366Z,13.10
2018-11-06T01:30:14.102Z,13.00
2018-11-06T01:32:43.078Z,13.00
2018-11-06T01:35:12.449Z,13.00
2018-11-06T01:37:41.219Z,13.00
2018-11-06T01:40:11.592Z,13.00
2018-11-06T01:42:40.097Z,13.00
2018-11-06T01:45:10.678Z,12.90
2018-11-06T01:47:39.451Z,13.00
2018-11-06T01:50:08.951Z,12.90
2018-11-06T01:52:37.295Z,12.90
2018-11-06T01:55:06.022Z,12.90
2018-11-06T01:57:34.388Z,12.90
2018-11-06T02:00:02.705Z,12.90
2018-11-06T02:02:30.960Z,12.90
2018-11-06T02:04:59.296Z,12.90
2018-11-06T02:07:27.562Z,12.90
2018-11-06T02:09:55.912Z,12.90
2018-11-06T02:12:24.431Z,12.80
2018-11-06T02:14:52.765Z,12.90
2018-11-06T02:17:21.130Z,12.90
2018-11-06T02:19:53.851Z,12.90
2018-11-06T02:22:22.605Z,12.90
2018-11-06T02:24:50.891Z,12.90
2018-11-06T02:27:19.195Z,12.90
2018-11-06T02:29:47.513Z,12.90
2018-11-06T02:32:15.905Z,12.90
2018-11-06T02:34:44.199Z,12.90
2018-11-06T02:37:12.509Z,12.90
2018-11-06T02:39:40.806Z,12.90
2018-11-06T02:42:09.065Z,12.90
2018-11-06T02:44:37.409Z,12.80
2018-11-06T02:47:06.286Z,12.80
2018-11-06T02:49:34.568Z,12.90
2018-11-06T02:52:02.898Z,12.90
2018-11-06T02:54:31.420Z,12.90
2018-11-06T02:56:59.720Z,12.90
2018-11-06T02:59:28.011Z,12.90
2018-11-06T03:01:56.289Z,12.90
2018-11-06T03:04:24.632Z,12.90
2018-11-06T03:06:52.926Z,13.00
2018-11-06T03:09:21.220Z,13.00
2018-11-06T03:11:49.511Z,13.00
2018-11-06T03:14:17.837Z,13.10
2018-11-06T03:16:46.204Z,13.10
2018-11-06T03:19:14.479Z,13.10
2018-11-06T03:21:42.763Z,13.20
2018-11-06T03:24:11.063Z,13.20
2018-11-06T03:26:39.389Z,13.20
2018-11-06T03:29:07.641Z,13.20
2018-11-06T03:31:35.912Z,13.20
2018-11-06T03:34:04.231Z,13.20
2018-11-06T03:36:32.523Z,13.20
2018-11-06T03:39:00.791Z,13.20
2018-11-06T03:41:29.117Z,13.30
2018-11-06T03:43:57.462Z,13.30
2018-11-06T03:46:25.705Z,13.40
2018-11-06T03:48:54.029Z,13.40
2018-11-06T03:51:22.323Z,13.40
2018-11-06T03:53:50.659Z,13.40
2018-11-06T03:56:18.932Z,13.40
2018-11-06T03:58:47.207Z,13.40
2018-11-06T04:01:15.509Z,13.40
2018-11-06T04:03:43.879Z,13.40
2018-11-06T04:06:12.183Z,13.40
2018-11-06T04:08:40.520Z,13.40
2018-11-06T04:11:09.201Z,13.40
2018-11-06T04:13:37.592Z,13.40
2018-11-06T04:16:06.014Z,13.40
2018-11-06T04:18:34.295Z,13.40
2018-11-06T04:21:02.575Z,13.40
2018-11-06T04:23:30.840Z,13.30
2018-11-06T04:25:59.321Z,13.40
2018-11-06T04:28:27.755Z,13.40
2018-11-06T04:30:56.030Z,13.40
2018-11-06T04:33:24.328Z,13.40
2018-11-06T04:35:52.648Z,13.40
2018-11-06T04:38:20.962Z,13.40
2018-11-06T04:40:49.276Z,13.40
2018-11-06T04:43:17.595Z,13.40
2018-11-06T04:45:45.971Z,13.40
2018-11-06T04:48:14.279Z,13.30
2018-11-06T04:50:42.548Z,13.30
2018-11-06T04:53:10.820Z,13.30
2018-11-06T04:55:39.088Z,13.20
2018-11-06T04:58:07.360Z,13.20
2018-11-06T05:00:35.650Z,13.20
2018-11-06T05:03:03.900Z,13.20
2018-11-06T05:05:32.239Z,13.20
2018-11-06T05:08:00.581Z,13.20
2018-11-06T05:10:28.900Z,13.20
2018-11-06T05:12:57.155Z,13.20
2018-11-06T05:15:25.421Z,13.20
2018-11-06T05:17:53.695Z,13.20
2018-11-06T05:20:22.037Z,13.20
2018-11-06T05:22:50.345Z,13.20
2018-11-06T05:25:18.602Z,13.20
2018-11-06T05:27:46.878Z,13.30
2018-11-06T05:30:15.110Z,13.30
2018-11-06T05:32:49.852Z,13.40
2018-11-06T05:35:18.143Z,13.40
2018-11-06T05:37:46.398Z,13.40
2018-11-06T05:40:25.983Z,13.40
2018-11-06T05:42:54.282Z,13.50
2018-11-06T05:45:22.554Z,13.50
2018-11-06T05:47:50.871Z,13.50
2018-11-06T05:50:19.214Z,13.50
2018-11-06T05:52:47.511Z,13.50
2018-11-06T05:55:15.786Z,13.50
2018-11-06T05:57:44.074Z,13.50
2018-11-06T06:00:12.379Z,13.50
2018-11-06T06:02:40.667Z,13.50
2018-11-06T06:05:09.114Z,13.40
2018-11-06T06:07:37.340Z,13.40
2018-11-06T06:10:06.099Z,13.40
2018-11-06T06:12:34.400Z,13.40
2018-11-06T06:15:02.683Z,13.50
2018-11-06T06:17:30.988Z,13.50
2018-11-06T06:19:59.290Z,13.60
2018-11-06T06:22:27.746Z,13.50
2018-11-06T06:24:56.017Z,13.60
2018-11-06T06:27:24.324Z,13.60
2018-11-06T06:29:52.629Z,13.60
2018-11-06T06:32:20.876Z,13.60
2018-11-06T06:34:49.148Z,13.60
2018-11-06T06:37:17.453Z,13.50
2018-11-06T06:39:45.722Z,13.50
2018-11-06T06:42:13.984Z,13.50
2018-11-06T06:44:42.267Z,13.40
2018-11-06T06:47:10.562Z,13.40
2018-11-06T06:49:38.904Z,13.30
2018-11-06T06:52:07.303Z,13.30
2018-11-06T06:54:35.832Z,13.30
2018-11-06T06:57:03.911Z,13.30
2018-11-06T06:59:32.302Z,13.30
2018-11-06T07:02:00.566Z,13.30
2018-11-06T07:04:28.831Z,13.40
2018-11-06T07:06:57.119Z,13.50
2018-11-06T07:09:25.367Z,13.50
2018-11-06T07:11:53.671Z,13.50
2018-11-06T07:14:21.911Z,13.50
2018-11-06T07:16:50.186Z,13.60
2018-11-06T07:19:18.491Z,13.60
2018-11-06T07:21:46.927Z,13.60
2018-11-06T07:24:15.154Z,13.80
2018-11-06T07:26:43.435Z,13.80
2018-11-06T07:29:11.725Z,14.00
2018-11-06T07:31:40.183Z,14.00
2018-11-06T07:34:08.583Z,14.10
2018-11-06T07:36:37.009Z,14.20
2018-11-06T07:39:08.429Z,14.30
2018-11-06T07:41:37.072Z,14.40
2018-11-06T07:44:05.411Z,14.40
2018-11-06T07:46:33.972Z,14.40
2018-11-06T07:49:02.380Z,14.50
2018-11-06T07:51:30.895Z,14.50
2018-11-06T07:53:59.140Z,14.50
2018-11-06T07:56:27.452Z,14.50
2018-11-06T07:58:55.726Z,14.50
2018-11-06T08:01:24.006Z,14.50
2018-11-06T08:03:52.327Z,14.50
2018-11-06T08:06:20.767Z,14.50
2018-11-06T08:08:49.031Z,14.60
2018-11-06T08:11:17.583Z,14.60
2018-11-06T08:13:45.948Z,14.50
2018-11-06T08:16:14.226Z,14.50
2018-11-06T08:18:49.099Z,14.40
2018-11-06T08:21:17.391Z,14.50
2018-11-06T08:23:45.651Z,14.50
2018-11-06T08:26:13.928Z,14.50
2018-11-06T08:28:42.315Z,14.60
2018-11-06T08:31:10.556Z,14.70
2018-11-06T08:33:38.942Z,14.70
2018-11-06T08:36:07.329Z,14.80
2018-11-06T08:38:35.658Z,14.90
2018-11-06T08:41:03.899Z,14.90
2018-11-06T08:43:32.203Z,14.90
2018-11-06T08:46:00.487Z,14.90
2018-11-06T08:48:28.825Z,14.80
2018-11-06T08:50:57.149Z,14.80
2018-11-06T08:53:25.446Z,14.90
2018-11-06T08:55:53.723Z,14.90
2018-11-06T08:58:22.034Z,14.90
2018-11-06T09:00:50.303Z,15.00
2018-11-06T09:03:18.581Z,15.00
2018-11-06T09:05:46.901Z,15.00
2018-11-06T09:08:15.161Z,15.10
2018-11-06T09:10:43.486Z,15.10
2018-11-06T09:13:11.732Z,15.20
2018-11-06T09:15:40.063Z,15.20
2018-11-06T09:18:08.450Z,15.30
2018-11-06T09:20:36.748Z,15.30
2018-11-06T09:23:05.071Z,15.40
2018-11-06T09:25:33.398Z,15.40
2018-11-06T09:28:01.725Z,15.50
2018-11-06T09:30:30.062Z,15.50
2018-11-06T09:32:58.331Z,15.50
2018-11-06T09:35:26.625Z,15.60
2018-11-06T09:37:54.886Z,15.60
2018-11-06T09:40:23.183Z,15.60
2018-11-06T09:42:51.435Z,15.80
2018-11-06T09:45:19.772Z,15.90
2018-11-06T09:47:48.055Z,16.00
2018-11-06T09:50:17.776Z,16.10
2018-11-06T09:52:46.512Z,16.30
2018-11-06T09:55:15.585Z,16.40
2018-11-06T09:57:44.259Z,16.50
2018-11-06T10:00:14.988Z,16.50
2018-11-06T10:02:43.224Z,16.60
2018-11-06T10:05:12.681Z,16.60
2018-11-06T10:07:40.990Z,16.70
2018-11-06T10:10:11.175Z,16.70
2018-11-06T10:12:39.904Z,16.80
2018-11-06T10:15:10.578Z,16.80
2018-11-06T10:17:39.673Z,16.90
2018-11-06T10:20:09.032Z,16.90
2018-11-06T10:22:37.399Z,17.00
2018-11-06T10:25:06.248Z,17.00
2018-11-06T10:27:34.843Z,17.10
2018-11-06T10:30:03.227Z,17.20
2018-11-06T10:32:31.513Z,17.20
2018-11-06T10:34:59.823Z,17.30
2018-11-06T10:37:28.149Z,17.30
2018-11-06T10:39:56.483Z,17.40
2018-11-06T10:42:24.799Z,17.50
2018-11-06T10:44:53.104Z,17.50
2018-11-06T10:47:21.495Z,17.50
2018-11-06T10:49:49.934Z,17.60
2018-11-06T10:52:18.668Z,17.50
2018-11-06T10:54:47.001Z,17.60
2018-11-06T10:57:15.451Z,17.70
2018-11-06T10:59:43.799Z,17.80
2018-11-06T11:02:16.432Z,17.80
2018-11-06T11:04:44.716Z,17.90
2018-11-06T11:07:13.092Z,18.00
2018-11-06T11:09:41.392Z,18.10
2018-11-06T11:12:09.722Z,18.10
2018-11-06T11:14:38.013Z,18.20
2018-11-06T11:17:06.567Z,18.20
2018-11-06T11:19:34.825Z,18.20
2018-11-06T11:22:03.119Z,18.20
2018-11-06T11:24:31.444Z,18.30
2018-11-06T11:26:59.913Z,18.30
2018-11-06T11:29:28.241Z,18.40
2018-11-06T11:31:56.868Z,18.50
2018-11-06T11:34:25.189Z,18.60
2018-11-06T11:36:53.559Z,18.60
2018-11-06T11:39:21.887Z,18.70
2018-11-06T11:41:50.195Z,18.70
2018-11-06T11:44:18.743Z,18.80
2018-11-06T11:46:47.111Z,18.80
2018-11-06T11:49:15.468Z,18.80
2018-11-06T11:51:43.830Z,18.90
2018-11-06T11:54:12.264Z,18.90
2018-11-06T11:56:40.614Z,18.90
2018-11-06T11:59:08.907Z,18.90
2018-11-06T12:01:37.524Z,18.90
2018-11-06T12:04:06.416Z,18.80
2018-11-06T12:06:34.766Z,18.90
2018-11-06T12:09:04.821Z,18.90
2018-11-06T12:11:33.170Z,18.90
2018-11-06T12:14:01.506Z,19.00
2018-11-06T12:16:29.858Z,19.00
2018-11-06T12:18:58.171Z,19.10
2018-11-06T12:21:26.504Z,19.20
2018-11-06T12:23:55.305Z,19.20
2018-11-06T12:26:23.635Z,19.20
2018-11-06T12:28:51.894Z,19.20
2018-11-06T12:31:20.228Z,19.20
2018-11-06T12:33:48.656Z,19.20
2018-11-06T12:36:17.015Z,19.20
2018-11-06T12:38:45.315Z,19.20
2018-11-06T12:41:13.681Z,19.20
2018-11-06T12:43:42.144Z,19.20
2018-11-06T12:46:10.341Z,19.20
2018-11-06T12:48:38.689Z,19.30
2018-11-06T12:51:07.524Z,19.30
2018-11-06T12:53:35.887Z,19.30
2018-11-06T12:56:04.398Z,19.40
2018-11-06T12:58:32.787Z,19.40
2018-11-06T13:01:01.286Z,19.50
2018-11-06T13:03:29.645Z,19.60
2018-11-06T13:05:58.155Z,19.60
2018-11-06T13:08:26.493Z,19.70
2018-11-06T13:10:55.246Z,19.80
2018-11-06T13:13:24.022Z,19.80
2018-11-06T13:15:52.842Z,19.90
2018-11-06T13:18:21.176Z,19.90
2018-11-06T13:20:49.702Z,19.90
2018-11-06T13:23:18.287Z,19.90
2018-11-06T13:25:46.837Z,19.90
2018-11-06T13:28:15.076Z,20.00
2018-11-06T13:30:43.474Z,20.00
2018-11-06T13:33:13.060Z,20.00
2018-11-06T13:35:41.551Z,20.00
2018-11-06T13:38:09.886Z,20.00
2018-11-06T13:40:47.872Z,20.00
2018-11-06T13:43:16.608Z,19.90
2018-11-06T13:45:45.364Z,19.90
2018-11-06T13:48:14.566Z,19.80
2018-11-06T13:50:43.167Z,19.70
2018-11-06T13:53:11.491Z,19.60
2018-11-06T13:55:39.843Z,19.60
2018-11-06T13:58:08.167Z,19.50
2018-11-06T14:00:36.492Z,19.50
2018-11-06T14:03:04.836Z,19.50
2018-11-06T14:05:33.123Z,19.50
2018-11-06T14:08:01.488Z,19.40
2018-11-06T14:10:29.816Z,19.40
2018-11-06T14:13:07.584Z,19.40
2018-11-06T14:15:36.003Z,19.40
2018-11-06T14:18:04.744Z,19.40
2018-11-06T14:20:37.936Z,19.40
2018-11-06T14:23:06.211Z,19.40
2018-11-06T14:25:34.708Z,19.40
2018-11-06T14:28:02.969Z,19.40
2018-11-06T14:30:31.212Z,19.40
2018-11-06T14:32:59.471Z,19.50
2018-11-06T14:35:27.788Z,19.50
2018-11-06T14:37:56.025Z,19.40
2018-11-06T14:40:24.329Z,19.40
2018-11-06T14:42:52.695Z,19.40
2018-11-06T14:45:20.873Z,19.40
2018-11-06T14:47:49.523Z,19.30
2018-11-06T14:50:17.845Z,19.30
2018-11-06T14:52:46.135Z,19.30
2018-11-06T14:55:15.269Z,19.30
2018-11-06T14:57:50.264Z,19.20
2018-11-06T15:00:20.650Z,19.20
2018-11-06T15:02:50.966Z,19.10
2018-11-06T15:05:22.238Z,19.10
2018-11-06T15:07:50.480Z,19.00
2018-11-06T15:10:18.887Z,19.00
2018-11-06T15:12:47.420Z,18.90
2018-11-06T15:15:16.381Z,18.90
2018-11-06T15:17:45.657Z,18.90
2018-11-06T15:20:15.145Z,18.80
2018-11-06T15:22:44.104Z,18.80
2018-11-06T15:25:13.212Z,18.70
2018-11-06T15:27:41.565Z,18.60
2018-11-06T15:30:11.950Z,18.60
2018-11-06T15:32:40.888Z,18.50
2018-11-06T15:35:11.072Z,18.40
2018-11-06T15:37:39.424Z,18.40
2018-11-06T15:40:11.518Z,18.30
2018-11-06T15:42:39.937Z,18.30
2018-11-06T15:45:10.010Z,18.20
2018-11-06T15:47:38.996Z,18.10
2018-11-06T15:50:09.020Z,18.10
2018-11-06T15:52:37.909Z,18.00
2018-11-06T15:55:06.300Z,17.90
2018-11-06T15:57:34.624Z,17.80
2018-11-06T16:00:03.395Z,17.80
2018-11-06T16:02:31.706Z,17.70
2018-11-06T16:05:00.092Z,17.70
2018-11-06T16:07:28.419Z,17.60
2018-11-06T16:09:56.849Z,17.60
2018-11-06T16:12:25.198Z,17.50
2018-11-06T16:14:53.492Z,17.50
2018-11-06T16:17:21.851Z,17.40
2018-11-06T16:19:50.166Z,17.40
2018-11-06T16:22:18.445Z,17.40
2018-11-06T16:24:46.952Z,17.40
2018-11-06T16:27:15.357Z,17.30
2018-11-06T16:29:43.718Z,17.30
2018-11-06T16:32:11.912Z,17.30
2018-11-06T16:34:40.324Z,17.30
2018-11-06T16:37:08.800Z,17.30
2018-11-06T16:39:37.050Z,17.20
2018-11-06T16:42:06.245Z,17.20
2018-11-06T16:44:34.618Z,17.20
2018-11-06T16:47:02.928Z,17.20
2018-11-06T16:49:31.247Z,17.20
2018-11-06T16:51:59.547Z,17.10
2018-11-06T16:54:27.953Z,17.10
2018-11-06T16:56:56.385Z,17.10
2018-11-06T16:59:24.705Z,17.10
2018-11-06T17:01:53.007Z,17.10
2018-11-06T17:04:21.465Z,17.10
2018-11-06T17:06:50.874Z,17.10
2018-11-06T17:09:20.094Z,17.10
2018-11-06T17:11:48.508Z,17.10
2018-11-06T17:14:16.911Z,17.10
2018-11-06T17:16:45.364Z,17.10
2018-11-06T17:19:13.736Z,17.20
2018-11-06T17:21:42.109Z,17.20
2018-11-06T17:24:10.495Z,17.10
2018-11-06T17:26:38.841Z,17.20
2018-11-06T17:29:07.202Z,17.20
2018-11-06T17:31:35.554Z,17.20
2018-11-06T17:34:03.937Z,17.20
2018-11-06T17:36:32.282Z,17.10
2018-11-06T17:39:00.725Z,17.10
2018-11-06T17:41:29.092Z,17.10
2018-11-06T17:43:57.630Z,17.00
2018-11-06T17:46:26.090Z,17.00
2018-11-06T17:48:54.434Z,17.00
2018-11-06T17:51:22.782Z,16.90
2018-11-06T17:53:51.254Z,16.90
2018-11-06T17:56:19.872Z,16.90
2018-11-06T17:58:48.261Z,16.90
2018-11-06T18:01:16.659Z,16.90
2018-11-06T18:03:44.968Z,16.90
2018-11-06T18:06:13.629Z,16.80
2018-11-06T18:08:41.943Z,16.80
2018-11-06T18:11:10.263Z,16.80
2018-11-06T18:13:38.616Z,16.80
2018-11-06T18:16:06.995Z,16.80
2018-11-06T18:18:35.263Z,16.80
2018-11-06T18:35:57.635Z,16.70
2018-11-06T18:38:26.042Z,16.70
2018-11-06T18:40:54.357Z,16.60
2018-11-06T18:43:22.946Z,16.60
2018-11-06T18:45:51.475Z,16.50
2018-11-06T18:48:19.847Z,16.40
2018-11-06T18:50:48.472Z,16.30
2018-11-06T18:53:16.783Z,16.30
2018-11-06T18:55:45.417Z,16.20
2018-11-06T18:58:13.866Z,16.20
2018-11-06T19:00:42.127Z,16.10
2018-11-06T19:03:10.515Z,16.10
2018-11-06T19:05:38.814Z,16.10
2018-11-06T19:08:07.212Z,16.10
2018-11-06T19:10:36.521Z,16.00
2018-11-06T19:13:04.809Z,16.00
2018-11-06T19:15:33.112Z,15.90
2018-11-06T19:18:01.636Z,15.90
2018-11-06T19:20:29.939Z,15.90
2018-11-06T19:22:58.184Z,15.90
2018-11-06T19:25:26.441Z,15.90
2018-11-06T19:27:54.771Z,15.90
2018-11-06T19:30:23.163Z,15.80
2018-11-06T19:32:51.843Z,15.80
2018-11-06T19:35:20.120Z,15.90
2018-11-06T19:37:48.415Z,15.90
2018-11-06T19:40:17.465Z,15.90
2018-11-06T19:42:47.258Z,15.90
2018-11-06T19:45:15.660Z,15.80
2018-11-06T19:47:44.029Z,15.80
2018-11-06T19:50:14.018Z,15.80
2018-11-06T19:52:42.235Z,15.80
2018-11-06T19:55:11.983Z,15.80
2018-11-06T19:57:40.347Z,15.90
2018-11-06T20:00:16.623Z,15.90
2018-11-06T20:02:46.157Z,15.90
2018-11-06T20:05:14.448Z,15.90
2018-11-06T20:07:43.844Z,15.90
2018-11-06T20:10:14.575Z,15.90
2018-11-06T20:12:44.697Z,15.80
2018-11-06T20:15:14.069Z,15.80
2018-11-06T20:17:43.055Z,15.80
2018-11-06T20:20:15.092Z,15.80
2018-11-06T20:22:43.515Z,15.90
2018-11-06T20:25:12.532Z,15.80
2018-11-06T20:27:40.952Z,15.90
2018-11-06T20:30:12.643Z,15.90
2018-11-06T20:32:41.246Z,15.90
2018-11-06T20:35:10.636Z,15.90
2018-11-06T20:37:38.960Z,15.90
2018-11-06T20:40:09.345Z,15.90
2018-11-06T20:42:38.056Z,15.90
2018-11-06T20:45:07.672Z,15.90
2018-11-06T20:47:35.998Z,15.90
2018-11-06T20:50:05.071Z,15.90
2018-11-06T20:52:33.360Z,15.90
2018-11-06T20:55:01.636Z,15.80
2018-11-06T20:57:29.959Z,15.80
2018-11-06T20:59:58.420Z,15.80
2018-11-06T21:02:26.719Z,15.80
2018-11-06T21:04:55.033Z,15.80
2018-11-06T21:07:23.450Z,15.80
2018-11-06T21:09:51.772Z,15.70
2018-11-06T21:12:20.100Z,15.70
2018-11-06T21:14:48.403Z,15.70
2018-11-06T21:17:16.741Z,15.70
2018-11-06T21:22:28.040Z,15.70
2018-11-06T21:24:56.452Z,15.70
2018-11-06T21:27:24.663Z,15.70
2018-11-06T21:29:52.954Z,15.70
2018-11-06T21:32:21.387Z,15.70
2018-11-06T21:34:49.694Z,15.60
2018-11-06T21:37:17.939Z,15.60
2018-11-06T21:39:46.218Z,15.60
2018-11-06T21:42:14.564Z,15.50
2018-11-06T21:44:42.932Z,15.50
2018-11-06T21:47:11.313Z,15.50
2018-11-06T21:49:39.673Z,15.40
2018-11-06T21:52:08.506Z,15.40
2018-11-06T21:54:36.906Z,15.50
2018-11-06T21:57:05.520Z,15.50
2018-11-06T21:59:33.782Z,15.40
2018-11-06T22:02:02.075Z,15.40
2018-11-06T22:04:30.427Z,15.40
2018-11-06T22:06:58.753Z,15.40
2018-11-06T22:09:27.160Z,15.30
2018-11-06T22:11:55.608Z,15.30
2018-11-06T22:14:24.206Z,15.30
2018-11-06T22:16:52.514Z,15.30
2018-11-06T22:19:21.004Z,15.30
2018-11-06T22:21:49.279Z,15.30
2018-11-06T22:24:18.337Z,15.30
2018-11-06T22:26:46.612Z,15.20
2018-11-06T22:29:15.217Z,15.20
2018-11-06T22:31:43.561Z,15.20
2018-11-06T22:34:11.773Z,15.20
2018-11-06T22:36:40.659Z,15.20
2018-11-06T22:39:09.971Z,15.20
2018-11-06T22:41:38.825Z,15.20
2018-11-06T22:44:08.249Z,15.20
2018-11-06T22:46:36.981Z,15.10
2018-11-06T22:49:06.813Z,15.20
2018-11-06T22:51:35.427Z,15.20
2018-11-06T22:54:03.957Z,15.20
2018-11-06T22:56:32.331Z,15.20
2018-11-06T22:59:00.714Z,15.20
2018-11-06T23:01:29.036Z,15.10
2018-11-06T23:03:57.360Z,15.10
2018-11-06T23:06:25.781Z,15.10
2018-11-06T23:08:54.002Z,15.10
2018-11-06T23:11:22.268Z,15.20
2018-11-06T23:13:50.564Z,15.10
2018-11-06T23:16:18.839Z,15.10
2018-11-06T23:18:47.143Z,15.10
2018-11-06T23:21:15.388Z,15.10
2018-11-06T23:23:43.649Z,15.10
2018-11-06T23:26:11.948Z,15.10
2018-11-06T23:28:40.292Z,15.00
2018-11-06T23:31:08.586Z,15.00
2018-11-06T23:33:36.846Z,15.00
2018-11-06T23:36:05.546Z,15.00
2018-11-06T23:38:33.879Z,15.00
2018-11-06T23:41:02.360Z,15.00
2018-11-06T23:43:30.649Z,15.00
2018-11-06T23:45:58.938Z,15.00
2018-11-06T23:48:27.257Z,14.90
2018-11-06T23:50:55.522Z,14.90
2018-11-06T23:53:23.836Z,14.90
2018-11-06T23:55:53.807Z,14.90
2018-11-06T23:58:22.123Z,14.90
